sensor_id;sensor_type;location;lat;lon;timestamp;pressure;altitude;pressure_sealevel;temperature;humidity
36726;BME280;44936;52.086;5.150;2023-02-01T00:00:09;102431.81;;;4.68;100.00
36726;BME280;44936;52.086;5.150;2023-02-01T00:02:35;102484.06;;;5.07;100.00
36726;BME280;44936;52.086;5.150;2023-02-01T00:05:09;102483.25;;;5.08;100.00
36726;BME280;44936;52.086;5.150;2023-02-01T00:07:41;102428.63;;;4.74;100.00
36726;BME280;44936;52.086;5.150;2023-02-01T00:10:09;102494.22;;;5.02;100.00
36726;BME280;44936;52.086;5.150;2023-02-01T00:12:35;102446.53;;;4.86;100.00
36726;BME280;44936;52.086;5.150;2023-02-01T00:15:00;102416.44;;;4.73;100.00
36726;BME280;44936;52.086;5.150;2023-02-01T00:17:25;102429.44;;;4.73;100.00
36726;BME280;44936;52.086;5.150;2023-02-01T00:19:51;102424.31;;;4.74;100.00
36726;BME280;44936;52.086;5.150;2023-02-01T00:22:16;102438.59;;;4.82;100.00
36726;BME280;44936;52.086;5.150;2023-02-01T00:24:42;102410.19;;;4.69;100.00
36726;BME280;44936;52.086;5.150;2023-02-01T00:27:10;102481.19;;;5.19;100.00
36726;BME280;44936;52.086;5.150;2023-02-01T00:29:39;102429.00;;;4.81;100.00
36726;BME280;44936;52.086;5.150;2023-02-01T00:32:04;102443.69;;;4.97;100.00
36726;BME280;44936;52.086;5.150;2023-02-01T00:34:30;102444.44;;;4.95;100.00
36726;BME280;44936;52.086;5.150;2023-02-01T00:36:55;102449.25;;;5.21;100.00
36726;BME280;44936;52.086;5.150;2023-02-01T00:39:20;102443.25;;;5.22;100.00
36726;BME280;44936;52.086;5.150;2023-02-01T00:41:46;102448.72;;;5.28;100.00
36726;BME280;44936;52.086;5.150;2023-02-01T00:44:13;102451.56;;;5.33;100.00
36726;BME280;44936;52.086;5.150;2023-02-01T00:46:39;102404.38;;;4.91;100.00
36726;BME280;44936;52.086;5.150;2023-02-01T00:49:04;102420.50;;;5.02;100.00
36726;BME280;44936;52.086;5.150;2023-02-01T00:51:35;102436.75;;;5.14;100.00
36726;BME280;44936;52.086;5.150;2023-02-01T00:54:00;102472.31;;;5.31;100.00
36726;BME280;44936;52.086;5.150;2023-02-01T00:56:27;102460.47;;;5.20;100.00
36726;BME280;44936;52.086;5.150;2023-02-01T00:58:52;102458.00;;;5.39;100.00
36726;BME280;44936;52.086;5.150;2023-02-01T01:01:23;102403.41;;;5.23;100.00
36726;BME280;44936;52.086;5.150;2023-02-01T01:03:57;102431.78;;;5.36;100.00
36726;BME280;44936;52.086;5.150;2023-02-01T01:06:40;102366.44;;;4.95;100.00
36726;BME280;44936;52.086;5.150;2023-02-01T01:09:06;102414.44;;;5.19;100.00
36726;BME280;44936;52.086;5.150;2023-02-01T01:11:35;102404.22;;;5.22;100.00
36726;BME280;44936;52.086;5.150;2023-02-01T01:14:01;102380.72;;;5.21;100.00
36726;BME280;44936;52.086;5.150;2023-02-01T01:16:31;102421.91;;;5.47;100.00
36726;BME280;44936;52.086;5.150;2023-02-01T01:19:00;102366.66;;;5.17;100.00
36726;BME280;44936;52.086;5.150;2023-02-01T01:21:27;102436.50;;;5.44;100.00
36726;BME280;44936;52.086;5.150;2023-02-01T01:23:55;102405.25;;;5.44;100.00
36726;BME280;44936;52.086;5.150;2023-02-01T01:26:23;102431.22;;;5.60;100.00
36726;BME280;44936;52.086;5.150;2023-02-01T01:28:49;102427.28;;;5.50;100.00
36726;BME280;44936;52.086;5.150;2023-02-01T01:31:17;102399.59;;;5.34;100.00
36726;BME280;44936;52.086;5.150;2023-02-01T01:33:44;102425.63;;;5.52;100.00
36726;BME280;44936;52.086;5.150;2023-02-01T01:36:12;102390.09;;;5.35;100.00
36726;BME280;44936;52.086;5.150;2023-02-01T01:38:41;102407.72;;;5.58;100.00
36726;BME280;44936;52.086;5.150;2023-02-01T01:41:08;102389.72;;;5.45;100.00
36726;BME280;44936;52.086;5.150;2023-02-01T01:43:55;102383.88;;;5.49;100.00
36726;BME280;44936;52.086;5.150;2023-02-01T01:46:25;102364.97;;;5.35;100.00
36726;BME280;44936;52.086;5.150;2023-02-01T01:49:16;102394.91;;;5.63;100.00
36726;BME280;44936;52.086;5.150;2023-02-01T01:51:50;102375.31;;;5.52;100.00
36726;BME280;44936;52.086;5.150;2023-02-01T01:54:29;102418.94;;;5.75;100.00
36726;BME280;44936;52.086;5.150;2023-02-01T01:57:04;102336.84;;;5.46;100.00
36726;BME280;44936;52.086;5.150;2023-02-01T01:59:32;102366.28;;;5.63;100.00
36726;BME280;44936;52.086;5.150;2023-02-01T02:02:03;102331.06;;;5.52;100.00
36726;BME280;44936;52.086;5.150;2023-02-01T02:04:32;102362.84;;;5.64;100.00
36726;BME280;44936;52.086;5.150;2023-02-01T02:07:02;102393.81;;;5.93;100.00
36726;BME280;44936;52.086;5.150;2023-02-01T02:09:29;102408.69;;;5.96;100.00
36726;BME280;44936;52.086;5.150;2023-02-01T02:11:54;102344.53;;;5.80;100.00
36726;BME280;44936;52.086;5.150;2023-02-01T02:14:21;102348.25;;;5.85;100.00
36726;BME280;44936;52.086;5.150;2023-02-01T02:25:27;102375.53;;;6.31;100.00
36726;BME280;44936;52.086;5.150;2023-02-01T02:33:53;102351.88;;;6.26;100.00
36726;BME280;44936;52.086;5.150;2023-02-01T02:42:39;102342.25;;;6.44;100.00
36726;BME280;44936;52.086;5.150;2023-02-01T02:48:22;102359.75;;;6.47;100.00
36726;BME280;44936;52.086;5.150;2023-02-01T02:54:13;102358.28;;;6.53;100.00
36726;BME280;44936;52.086;5.150;2023-02-01T02:57:02;102320.38;;;6.41;100.00
36726;BME280;44936;52.086;5.150;2023-02-01T02:59:47;102336.75;;;6.58;100.00
36726;BME280;44936;52.086;5.150;2023-02-01T03:02:34;102264.81;;;6.21;100.00
36726;BME280;44936;52.086;5.150;2023-02-01T03:05:21;102308.53;;;6.47;100.00
36726;BME280;44936;52.086;5.150;2023-02-01T03:07:54;102326.63;;;6.44;100.00
36726;BME280;44936;52.086;5.150;2023-02-01T03:10:32;102329.09;;;6.41;100.00
36726;BME280;44936;52.086;5.150;2023-02-01T03:13:06;102328.16;;;6.39;100.00
36726;BME280;44936;52.086;5.150;2023-02-01T03:18:30;102327.19;;;6.18;100.00
36726;BME280;44936;52.086;5.150;2023-02-01T03:20:59;102312.03;;;6.29;100.00
36726;BME280;44936;52.086;5.150;2023-02-01T03:23:31;102320.41;;;6.21;100.00
36726;BME280;44936;52.086;5.150;2023-02-01T03:26:00;102308.94;;;5.99;100.00
36726;BME280;44936;52.086;5.150;2023-02-01T03:28:37;102324.44;;;6.15;100.00
36726;BME280;44936;52.086;5.150;2023-02-01T03:31:05;102270.19;;;5.67;100.00
36726;BME280;44936;52.086;5.150;2023-02-01T03:33:31;102288.78;;;5.75;100.00
36726;BME280;44936;52.086;5.150;2023-02-01T03:36:24;102329.78;;;5.99;100.00
36726;BME280;44936;52.086;5.150;2023-02-01T03:41:46;102338.84;;;6.07;100.00
36726;BME280;44936;52.086;5.150;2023-02-01T03:44:22;102341.09;;;5.99;100.00
36726;BME280;44936;52.086;5.150;2023-02-01T03:46:56;102324.75;;;5.84;100.00
36726;BME280;44936;52.086;5.150;2023-02-01T03:49:33;102298.91;;;5.69;100.00
36726;BME280;44936;52.086;5.150;2023-02-01T03:52:00;102349.47;;;5.92;100.00
36726;BME280;44936;52.086;5.150;2023-02-01T03:54:27;102337.16;;;5.89;100.00
36726;BME280;44936;52.086;5.150;2023-02-01T03:56:56;102339.47;;;6.01;100.00
36726;BME280;44936;52.086;5.150;2023-02-01T03:59:23;102322.19;;;6.03;100.00
36726;BME280;44936;52.086;5.150;2023-02-01T04:01:52;102293.19;;;5.95;100.00
36726;BME280;44936;52.086;5.150;2023-02-01T04:04:18;102343.84;;;6.21;100.00
36726;BME280;44936;52.086;5.150;2023-02-01T04:06:48;102336.09;;;6.23;100.00
36726;BME280;44936;52.086;5.150;2023-02-01T04:09:13;102269.88;;;5.99;100.00
36726;BME280;44936;52.086;5.150;2023-02-01T04:11:38;102298.94;;;6.08;100.00
36726;BME280;44936;52.086;5.150;2023-02-01T04:14:04;102285.72;;;6.03;100.00
36726;BME280;44936;52.086;5.150;2023-02-01T04:16:32;102298.75;;;6.22;100.00
36726;BME280;44936;52.086;5.150;2023-02-01T04:18:58;102262.13;;;6.00;100.00
36726;BME280;44936;52.086;5.150;2023-02-01T04:21:26;102289.91;;;6.19;100.00
36726;BME280;44936;52.086;5.150;2023-02-01T04:23:52;102314.16;;;6.37;100.00
36726;BME280;44936;52.086;5.150;2023-02-01T04:26:20;102317.78;;;6.41;100.00
36726;BME280;44936;52.086;5.150;2023-02-01T04:28:46;102261.59;;;6.07;100.00
36726;BME280;44936;52.086;5.150;2023-02-01T04:31:17;102271.00;;;6.04;100.00
36726;BME280;44936;52.086;5.150;2023-02-01T04:33:53;102260.63;;;6.05;100.00
36726;BME280;44936;52.086;5.150;2023-02-01T04:36:20;102325.31;;;6.35;100.00
36726;BME280;44936;52.086;5.150;2023-02-01T04:38:51;102314.34;;;6.42;100.00
36726;BME280;44936;52.086;5.150;2023-02-01T04:41:18;102318.66;;;6.41;100.00
36726;BME280;44936;52.086;5.150;2023-02-01T04:43:48;102277.28;;;6.09;100.00
36726;BME280;44936;52.086;5.150;2023-02-01T04:46:26;102285.38;;;6.15;100.00
36726;BME280;44936;52.086;5.150;2023-02-01T04:48:55;102342.22;;;6.23;100.00
36726;BME280;44936;52.086;5.150;2023-02-01T04:51:20;102296.28;;;6.06;100.00
36726;BME280;44936;52.086;5.150;2023-02-01T04:53:46;102346.13;;;6.14;100.00
36726;BME280;44936;52.086;5.150;2023-02-01T04:56:11;102272.41;;;5.78;100.00
36726;BME280;44936;52.086;5.150;2023-02-01T04:58:37;102286.84;;;5.71;100.00
36726;BME280;44936;52.086;5.150;2023-02-01T05:01:06;102329.94;;;6.02;100.00
36726;BME280;44936;52.086;5.150;2023-02-01T05:03:33;102298.03;;;5.88;100.00
36726;BME280;44936;52.086;5.150;2023-02-01T05:06:00;102249.63;;;5.54;100.00
36726;BME280;44936;52.086;5.150;2023-02-01T05:08:26;102298.50;;;5.79;100.00
36726;BME280;44936;52.086;5.150;2023-02-01T05:10:52;102294.72;;;5.73;100.00
36726;BME280;44936;52.086;5.150;2023-02-01T05:13:20;102340.97;;;5.96;100.00
36726;BME280;44936;52.086;5.150;2023-02-01T05:16:05;102295.59;;;5.73;100.00
36726;BME280;44936;52.086;5.150;2023-02-01T05:18:33;102299.31;;;5.78;100.00
36726;BME280;44936;52.086;5.150;2023-02-01T05:20:59;102293.97;;;5.75;100.00
36726;BME280;44936;52.086;5.150;2023-02-01T05:23:26;102304.41;;;5.75;100.00
36726;BME280;44936;52.086;5.150;2023-02-01T05:25:52;102350.38;;;5.92;100.00
36726;BME280;44936;52.086;5.150;2023-02-01T05:28:17;102352.56;;;5.85;100.00
36726;BME280;44936;52.086;5.150;2023-02-01T05:30:43;102357.91;;;5.88;100.00
36726;BME280;44936;52.086;5.150;2023-02-01T05:33:14;102293.13;;;5.57;100.00
36726;BME280;44936;52.086;5.150;2023-02-01T05:35:44;102364.91;;;5.89;100.00
36726;BME280;44936;52.086;5.150;2023-02-01T05:38:13;102372.66;;;5.87;100.00
36726;BME280;44936;52.086;5.150;2023-02-01T05:40:38;102331.97;;;5.72;100.00
36726;BME280;44936;52.086;5.150;2023-02-01T05:43:04;102332.75;;;5.88;100.00
36726;BME280;44936;52.086;5.150;2023-02-01T05:45:29;102355.66;;;6.13;100.00
36726;BME280;44936;52.086;5.150;2023-02-01T05:47:54;102343.09;;;6.05;100.00
36726;BME280;44936;52.086;5.150;2023-02-01T05:50:20;102292.28;;;5.76;100.00
36726;BME280;44936;52.086;5.150;2023-02-01T05:52:45;102315.28;;;6.04;100.00
36726;BME280;44936;52.086;5.150;2023-02-01T05:55:10;102343.56;;;6.15;100.00
36726;BME280;44936;52.086;5.150;2023-02-01T05:57:36;102349.59;;;6.14;100.00
36726;BME280;44936;52.086;5.150;2023-02-01T06:00:02;102337.47;;;6.15;100.00
36726;BME280;44936;52.086;5.150;2023-02-01T06:02:28;102340.91;;;6.14;100.00
36726;BME280;44936;52.086;5.150;2023-02-01T06:04:53;102343.91;;;6.04;100.00
36726;BME280;44936;52.086;5.150;2023-02-01T06:07:19;102355.91;;;6.00;100.00
36726;BME280;44936;52.086;5.150;2023-02-01T06:09:44;102288.00;;;5.58;100.00
36726;BME280;44936;52.086;5.150;2023-02-01T06:12:10;102341.41;;;5.87;100.00
36726;BME280;44936;52.086;5.150;2023-02-01T06:14:39;102322.31;;;5.69;100.00
36726;BME280;44936;52.086;5.150;2023-02-01T06:17:04;102351.25;;;5.75;100.00
36726;BME280;44936;52.086;5.150;2023-02-01T06:19:31;102363.03;;;5.67;100.00
36726;BME280;44936;52.086;5.150;2023-02-01T06:21:59;102384.47;;;5.81;100.00
36726;BME280;44936;52.086;5.150;2023-02-01T06:24:24;102337.53;;;5.60;100.00
36726;BME280;44936;52.086;5.150;2023-02-01T06:26:50;102337.28;;;5.55;100.00
36726;BME280;44936;52.086;5.150;2023-02-01T06:29:15;102332.69;;;5.50;100.00
36726;BME280;44936;52.086;5.150;2023-02-01T06:31:41;102367.31;;;5.84;100.00
36726;BME280;44936;52.086;5.150;2023-02-01T06:34:09;102313.66;;;5.51;100.00
36726;BME280;44936;52.086;5.150;2023-02-01T06:36:34;102390.88;;;5.87;100.00
36726;BME280;44936;52.086;5.150;2023-02-01T06:38:59;102359.72;;;5.71;100.00
36726;BME280;44936;52.086;5.150;2023-02-01T06:41:25;102357.13;;;5.71;100.00
36726;BME280;44936;52.086;5.150;2023-02-01T06:43:50;102357.44;;;5.77;100.00
36726;BME280;44936;52.086;5.150;2023-02-01T06:46:16;102338.34;;;5.59;100.00
36726;BME280;44936;52.086;5.150;2023-02-01T06:48:43;102339.66;;;5.68;100.00
36726;BME280;44936;52.086;5.150;2023-02-01T06:51:28;102320.19;;;5.60;100.00
36726;BME280;44936;52.086;5.150;2023-02-01T06:53:55;102386.13;;;5.96;100.00
36726;BME280;44936;52.086;5.150;2023-02-01T06:56:20;102321.22;;;5.64;100.00
36726;BME280;44936;52.086;5.150;2023-02-01T06:58:46;102408.22;;;6.05;100.00
36726;BME280;44936;52.086;5.150;2023-02-01T07:01:12;102347.19;;;5.82;100.00
36726;BME280;44936;52.086;5.150;2023-02-01T07:03:38;102349.66;;;5.96;100.00
36726;BME280;44936;52.086;5.150;2023-02-01T07:06:05;102338.22;;;5.93;100.00
36726;BME280;44936;52.086;5.150;2023-02-01T07:08:34;102335.53;;;5.91;100.00
36726;BME280;44936;52.086;5.150;2023-02-01T07:13:30;102370.31;;;6.11;100.00
36726;BME280;44936;52.086;5.150;2023-02-01T07:16:01;102386.31;;;6.19;100.00
36726;BME280;44936;52.086;5.150;2023-02-01T07:18:27;102299.44;;;5.81;100.00
36726;BME280;44936;52.086;5.150;2023-02-01T07:20:54;102304.72;;;5.83;100.00
36726;BME280;44936;52.086;5.150;2023-02-01T07:23:19;102365.47;;;6.19;100.00
36726;BME280;44936;52.086;5.150;2023-02-01T07:25:45;102340.63;;;6.08;100.00
36726;BME280;44936;52.086;5.150;2023-02-01T07:28:12;102306.25;;;5.78;100.00
36726;BME280;44936;52.086;5.150;2023-02-01T07:30:38;102319.38;;;5.99;100.00
36726;BME280;44936;52.086;5.150;2023-02-01T07:33:04;102325.00;;;5.90;100.00
36726;BME280;44936;52.086;5.150;2023-02-01T07:35:31;102336.03;;;6.02;100.00
36726;BME280;44936;52.086;5.150;2023-02-01T07:37:57;102325.13;;;5.91;100.00
36726;BME280;44936;52.086;5.150;2023-02-01T07:40:26;102352.41;;;6.00;100.00
36726;BME280;44936;52.086;5.150;2023-02-01T07:42:56;102365.94;;;6.10;100.00
36726;BME280;44936;52.086;5.150;2023-02-01T07:45:23;102379.97;;;6.14;100.00
36726;BME280;44936;52.086;5.150;2023-02-01T07:47:51;102357.84;;;6.04;100.00
36726;BME280;44936;52.086;5.150;2023-02-01T07:50:17;102380.94;;;6.16;100.00
36726;BME280;44936;52.086;5.150;2023-02-01T07:52:42;102317.25;;;5.72;100.00
36726;BME280;44936;52.086;5.150;2023-02-01T07:55:11;102346.78;;;5.90;100.00
36726;BME280;44936;52.086;5.150;2023-02-01T07:57:37;102348.72;;;5.94;100.00
36726;BME280;44936;52.086;5.150;2023-02-01T08:00:03;102373.25;;;6.00;100.00
36726;BME280;44936;52.086;5.150;2023-02-01T08:02:47;102363.00;;;5.85;100.00
36726;BME280;44936;52.086;5.150;2023-02-01T08:05:23;102357.19;;;5.90;100.00
36726;BME280;44936;52.086;5.150;2023-02-01T08:07:49;102376.22;;;5.89;100.00
36726;BME280;44936;52.086;5.150;2023-02-01T08:10:19;102404.91;;;6.09;100.00
36726;BME280;44936;52.086;5.150;2023-02-01T08:12:45;102362.81;;;5.82;100.00
36726;BME280;44936;52.086;5.150;2023-02-01T08:15:17;102325.59;;;5.65;100.00
36726;BME280;44936;52.086;5.150;2023-02-01T08:17:47;102328.94;;;5.62;100.00
36726;BME280;44936;52.086;5.150;2023-02-01T08:20:13;102372.22;;;5.96;100.00
36726;BME280;44936;52.086;5.150;2023-02-01T08:22:39;102368.66;;;5.94;100.00
36726;BME280;44936;52.086;5.150;2023-02-01T08:25:10;102400.41;;;6.05;100.00
36726;BME280;44936;52.086;5.150;2023-02-01T08:27:41;102330.13;;;5.69;100.00
36726;BME280;44936;52.086;5.150;2023-02-01T08:30:07;102376.13;;;6.06;100.00
36726;BME280;44936;52.086;5.150;2023-02-01T08:32:35;102340.44;;;5.85;100.00
36726;BME280;44936;52.086;5.150;2023-02-01T08:35:09;102360.16;;;5.98;100.00
36726;BME280;44936;52.086;5.150;2023-02-01T08:37:34;102369.09;;;6.03;100.00
36726;BME280;44936;52.086;5.150;2023-02-01T08:40:11;102319.19;;;5.76;100.00
36726;BME280;44936;52.086;5.150;2023-02-01T08:42:39;102345.28;;;5.95;100.00
36726;BME280;44936;52.086;5.150;2023-02-01T08:45:21;102372.16;;;6.14;100.00
36726;BME280;44936;52.086;5.150;2023-02-01T08:47:49;102400.94;;;6.17;100.00
36726;BME280;44936;52.086;5.150;2023-02-01T08:50:14;102322.22;;;5.85;100.00
36726;BME280;44936;52.086;5.150;2023-02-01T08:52:41;102393.56;;;6.26;100.00
36726;BME280;44936;52.086;5.150;2023-02-01T08:55:07;102326.34;;;6.00;100.00
36726;BME280;44936;52.086;5.150;2023-02-01T08:57:33;102374.78;;;6.33;100.00
36726;BME280;44936;52.086;5.150;2023-02-01T08:59:59;102336.81;;;6.19;100.00
36726;BME280;44936;52.086;5.150;2023-02-01T09:02:25;102361.41;;;6.45;100.00
36726;BME280;44936;52.086;5.150;2023-02-01T09:04:52;102335.13;;;6.40;100.00
36726;BME280;44936;52.086;5.150;2023-02-01T09:07:27;102317.94;;;6.24;100.00
36726;BME280;44936;52.086;5.150;2023-02-01T09:09:55;102290.44;;;6.31;100.00
36726;BME280;44936;52.086;5.150;2023-02-01T09:12:22;102316.59;;;6.53;100.00
36726;BME280;44936;52.086;5.150;2023-02-01T09:14:47;102321.69;;;6.71;100.00
36726;BME280;44936;52.086;5.150;2023-02-01T09:17:13;102273.31;;;6.57;100.00
36726;BME280;44936;52.086;5.150;2023-02-01T09:19:39;102289.31;;;6.87;100.00
36726;BME280;44936;52.086;5.150;2023-02-01T09:22:05;102271.31;;;6.93;100.00
36726;BME280;44936;52.086;5.150;2023-02-01T09:24:31;102269.91;;;7.01;100.00
36726;BME280;44936;52.086;5.150;2023-02-01T09:27:09;102245.88;;;6.88;100.00
36726;BME280;44936;52.086;5.150;2023-02-01T09:29:34;102311.69;;;7.24;100.00
36726;BME280;44936;52.086;5.150;2023-02-01T09:32:00;102298.25;;;7.15;100.00
36726;BME280;44936;52.086;5.150;2023-02-01T09:34:28;102295.03;;;7.20;100.00
36726;BME280;44936;52.086;5.150;2023-02-01T09:36:53;102306.47;;;7.24;100.00
36726;BME280;44936;52.086;5.150;2023-02-01T09:39:19;102263.66;;;6.98;100.00
36726;BME280;44936;52.086;5.150;2023-02-01T09:42:11;102288.97;;;7.21;100.00
36726;BME280;44936;52.086;5.150;2023-02-01T09:45:01;102294.81;;;7.36;100.00
36726;BME280;44936;52.086;5.150;2023-02-01T09:47:30;102313.13;;;7.38;100.00
36726;BME280;44936;52.086;5.150;2023-02-01T09:53:48;102298.34;;;7.38;100.00
36726;BME280;44936;52.086;5.150;2023-02-01T09:56:26;102305.94;;;7.32;100.00
36726;BME280;44936;52.086;5.150;2023-02-01T10:01:49;102309.44;;;7.33;100.00
36726;BME280;44936;52.086;5.150;2023-02-01T10:04:16;102321.53;;;7.31;100.00
36726;BME280;44936;52.086;5.150;2023-02-01T10:12:36;102346.28;;;7.18;100.00
36726;BME280;44936;52.086;5.150;2023-02-01T10:18:35;102358.69;;;7.03;100.00
36726;BME280;44936;52.086;5.150;2023-02-01T10:21:13;102343.25;;;6.67;100.00
36726;BME280;44936;52.086;5.150;2023-02-01T10:24:06;102393.47;;;6.82;100.00
36726;BME280;44936;52.086;5.150;2023-02-01T10:26:40;102338.16;;;6.30;100.00
36726;BME280;44936;52.086;5.150;2023-02-01T10:29:16;102373.94;;;6.53;100.00
36726;BME280;44936;52.086;5.150;2023-02-01T10:31:43;102334.66;;;6.30;100.00
36726;BME280;44936;52.086;5.150;2023-02-01T10:34:23;102352.00;;;6.48;100.00
36726;BME280;44936;52.086;5.150;2023-02-01T10:36:59;102377.03;;;6.64;100.00
36726;BME280;44936;52.086;5.150;2023-02-01T10:39:25;102331.56;;;6.38;100.00
36726;BME280;44936;52.086;5.150;2023-02-01T10:41:51;102363.72;;;6.58;100.00
36726;BME280;44936;52.086;5.150;2023-02-01T10:44:23;102345.84;;;6.46;100.00
36726;BME280;44936;52.086;5.150;2023-02-01T10:46:50;102345.88;;;6.67;100.00
36726;BME280;44936;52.086;5.150;2023-02-01T10:49:32;102313.78;;;6.49;100.00
36726;BME280;44936;52.086;5.150;2023-02-01T10:52:11;102336.31;;;6.68;100.00
36726;BME280;44936;52.086;5.150;2023-02-01T10:54:39;102319.16;;;6.73;100.00
36726;BME280;44936;52.086;5.150;2023-02-01T10:57:11;102327.44;;;6.84;100.00
36726;BME280;44936;52.086;5.150;2023-02-01T10:59:46;102323.50;;;6.93;100.00
36726;BME280;44936;52.086;5.150;2023-02-01T11:02:30;102311.78;;;7.04;100.00
36726;BME280;44936;52.086;5.150;2023-02-01T11:05:05;102329.84;;;7.21;100.00
36726;BME280;44936;52.086;5.150;2023-02-01T11:07:36;102282.22;;;6.83;100.00
36726;BME280;44936;52.086;5.150;2023-02-01T11:10:02;102297.59;;;6.77;100.00
36726;BME280;44936;52.086;5.150;2023-02-01T11:12:37;102358.00;;;7.07;100.00
36726;BME280;44936;52.086;5.150;2023-02-01T11:15:15;102343.03;;;7.03;100.00
36726;BME280;44936;52.086;5.150;2023-02-01T11:17:45;102367.28;;;7.00;100.00
36726;BME280;44936;52.086;5.150;2023-02-01T11:20:16;102373.44;;;6.81;100.00
36726;BME280;44936;52.086;5.150;2023-02-01T11:22:52;102369.16;;;6.84;100.00
36726;BME280;44936;52.086;5.150;2023-02-01T11:25:21;102368.41;;;6.86;100.00
36726;BME280;44936;52.086;5.150;2023-02-01T11:27:49;102376.28;;;6.88;100.00
36726;BME280;44936;52.086;5.150;2023-02-01T11:30:34;102311.91;;;6.66;100.00
36726;BME280;44936;52.086;5.150;2023-02-01T11:33:02;102353.00;;;7.13;100.00
36726;BME280;44936;52.086;5.150;2023-02-01T11:35:29;102330.75;;;7.00;100.00
36726;BME280;44936;52.086;5.150;2023-02-01T11:37:58;102293.13;;;6.95;100.00
36726;BME280;44936;52.086;5.150;2023-02-01T11:40:50;102349.00;;;7.21;100.00
36726;BME280;44936;52.086;5.150;2023-02-01T11:43:27;102318.09;;;7.32;100.00
36726;BME280;44936;52.086;5.150;2023-02-01T11:46:00;102346.38;;;7.42;100.00
36726;BME280;44936;52.086;5.150;2023-02-01T11:48:31;102274.97;;;7.19;100.00
36726;BME280;44936;52.086;5.150;2023-02-01T11:56:41;102309.81;;;7.64;100.00
36726;BME280;44936;52.086;5.150;2023-02-01T11:59:39;102288.69;;;7.58;100.00
36726;BME280;44936;52.086;5.150;2023-02-01T12:07:50;102271.56;;;7.89;100.00
36726;BME280;44936;52.086;5.150;2023-02-01T12:10:37;102246.88;;;7.81;100.00
36726;BME280;44936;52.086;5.150;2023-02-01T12:13:18;102202.66;;;7.61;100.00
36726;BME280;44936;52.086;5.150;2023-02-01T12:16:18;102284.03;;;7.96;100.00
36726;BME280;44936;52.086;5.150;2023-02-01T12:19:08;102268.69;;;8.05;100.00
36726;BME280;44936;52.086;5.150;2023-02-01T12:21:59;102215.88;;;7.90;100.00
36726;BME280;44936;52.086;5.150;2023-02-01T12:30:11;102180.22;;;7.68;100.00
36726;BME280;44936;52.086;5.150;2023-02-01T12:46:59;102219.78;;;8.03;100.00
36726;BME280;44936;52.086;5.150;2023-02-01T12:49:52;102201.81;;;8.12;100.00
36726;BME280;44936;52.086;5.150;2023-02-01T12:52:37;102233.19;;;8.36;100.00
36726;BME280;44936;52.086;5.150;2023-02-01T12:58:13;102235.84;;;8.37;100.00
36726;BME280;44936;52.086;5.150;2023-02-01T13:03:50;102237.84;;;8.20;100.00
36726;BME280;44936;52.086;5.150;2023-02-01T13:06:32;102239.75;;;8.24;100.00
36726;BME280;44936;52.086;5.150;2023-02-01T13:09:16;102203.53;;;8.11;100.00
36726;BME280;44936;52.086;5.150;2023-02-01T13:11:45;102170.84;;;7.97;100.00
36726;BME280;44936;52.086;5.150;2023-02-01T13:14:22;102233.81;;;8.30;100.00
36726;BME280;44936;52.086;5.150;2023-02-01T13:17:03;102156.72;;;7.92;100.00
36726;BME280;44936;52.086;5.150;2023-02-01T13:19:52;102214.66;;;8.04;100.00
36726;BME280;44936;52.086;5.150;2023-02-01T13:22:27;102172.28;;;7.89;100.00
36726;BME280;44936;52.086;5.150;2023-02-01T13:25:37;102229.41;;;8.04;100.00
36726;BME280;44936;52.086;5.150;2023-02-01T13:28:10;102211.09;;;8.04;100.00
36726;BME280;44936;52.086;5.150;2023-02-01T13:33:40;102234.28;;;7.94;100.00
36726;BME280;44936;52.086;5.150;2023-02-01T13:39:02;102255.19;;;8.18;100.00
36726;BME280;44936;52.086;5.150;2023-02-01T13:47:02;102253.47;;;8.19;100.00
36726;BME280;44936;52.086;5.150;2023-02-01T13:49:36;102206.97;;;7.85;100.00
36726;BME280;44936;52.086;5.150;2023-02-01T13:54:48;102222.88;;;7.91;100.00
36726;BME280;44936;52.086;5.150;2023-02-01T14:08:38;102234.47;;;7.99;100.00
36726;BME280;44936;52.086;5.150;2023-02-01T14:11:04;102219.34;;;7.66;100.00
36726;BME280;44936;52.086;5.150;2023-02-01T14:13:37;102237.88;;;7.97;100.00
36726;BME280;44936;52.086;5.150;2023-02-01T14:21:32;102211.34;;;7.86;100.00
36726;BME280;44936;52.086;5.150;2023-02-01T14:29:26;102235.38;;;8.00;100.00
36726;BME280;44936;52.086;5.150;2023-02-01T14:32:20;102268.13;;;8.14;100.00
36726;BME280;44936;52.086;5.150;2023-02-01T14:34:53;102269.66;;;8.09;100.00
36726;BME280;44936;52.086;5.150;2023-02-01T14:40:16;102244.84;;;7.96;100.00
36726;BME280;44936;52.086;5.150;2023-02-01T14:42:51;102236.16;;;7.97;100.00
36726;BME280;44936;52.086;5.150;2023-02-01T14:58:40;102276.84;;;7.90;100.00
36726;BME280;44936;52.086;5.150;2023-02-01T15:03:50;102240.53;;;7.74;100.00
36726;BME280;44936;52.086;5.150;2023-02-01T15:09:35;102287.44;;;7.95;100.00
36726;BME280;44936;52.086;5.150;2023-02-01T15:14:43;102299.16;;;8.05;100.00
36726;BME280;44936;52.086;5.150;2023-02-01T15:17:38;102296.59;;;8.06;100.00
36726;BME280;44936;52.086;5.150;2023-02-01T15:20:18;102289.41;;;8.01;100.00
36726;BME280;44936;52.086;5.150;2023-02-01T15:22:59;102269.72;;;7.86;100.00
36726;BME280;44936;52.086;5.150;2023-02-01T15:25:39;102316.88;;;8.13;100.00
36726;BME280;44936;52.086;5.150;2023-02-01T15:28:05;102324.53;;;8.09;100.00
36726;BME280;44936;52.086;5.150;2023-02-01T15:30:33;102313.38;;;8.13;100.00
36726;BME280;44936;52.086;5.150;2023-02-01T15:41:06;102334.94;;;8.07;100.00
36726;BME280;44936;52.086;5.150;2023-02-01T15:46:33;102280.53;;;7.73;100.00
36726;BME280;44936;52.086;5.150;2023-02-01T15:49:01;102333.03;;;8.03;100.00